createdAt,value
2018-08-22T00:00:15.391Z,98796.05
2018-08-22T00:02:45.924Z,98787.27
2018-08-22T00:05:16.492Z,98787.63
2018-08-22T00:07:46.985Z,98785.92
2018-08-22T00:10:17.481Z,98793.67
2018-08-22T00:12:47.994Z,98789.66
2018-08-22T00:15:19.328Z,98791.80
2018-08-22T00:17:50.029Z,98787.31
2018-08-22T00:20:21.187Z,98792.59
2018-08-22T00:22:51.923Z,98793.72
2018-08-22T00:25:22.416Z,98785.79
2018-08-22T00:27:52.979Z,98785.58
2018-08-22T00:30:23.604Z,98780.62
2018-08-22T00:32:54.107Z,98781.21
2018-08-22T00:35:25.143Z,98773.23
2018-08-22T00:37:55.718Z,98767.91
2018-08-22T00:40:26.049Z,98769.86
2018-08-22T00:42:57.393Z,98771.60
2018-08-22T00:45:27.975Z,98776.73
2018-08-22T00:47:58.807Z,98774.06
2018-08-22T00:50:29.478Z,98773.33
2018-08-22T00:53:00.399Z,98772.65
2018-08-22T00:55:31.081Z,98781.58
2018-08-22T00:58:01.489Z,98781.22
2018-08-22T01:00:31.958Z,98787.34
2018-08-22T01:03:02.423Z,98778.06
2018-08-22T01:05:32.885Z,98775.91
2018-08-22T01:08:03.429Z,98779.22
2018-08-22T01:10:33.906Z,98778.90
2018-08-22T01:13:04.412Z,98780.19
2018-08-22T01:15:34.853Z,98775.55
2018-08-22T01:18:05.367Z,98779.84
2018-08-22T01:20:36.180Z,98777.20
2018-08-22T01:23:06.886Z,98769.08
2018-08-22T01:25:37.350Z,98775.84
2018-08-22T01:28:07.917Z,98772.88
2018-08-22T01:30:38.300Z,98766.08
2018-08-22T01:33:09.161Z,98771.84
2018-08-22T01:35:39.892Z,98767.56
2018-08-22T01:38:10.332Z,98765.85
2018-08-22T01:40:40.939Z,98766.78
2018-08-22T01:43:11.288Z,98763.39
2018-08-22T01:45:41.798Z,98764.67
2018-08-22T01:48:12.371Z,98762.00
2018-08-22T01:50:42.962Z,98763.41
2018-08-22T01:53:13.479Z,98766.97
2018-08-22T01:55:44.015Z,98769.41
2018-08-22T01:58:14.499Z,98764.77
2018-08-22T02:00:45.002Z,98761.45
2018-08-22T02:03:15.649Z,98763.28
2018-08-22T02:05:46.023Z,98764.41
2018-08-22T02:08:16.439Z,98756.29
2018-08-22T02:10:46.889Z,98765.64
2018-08-22T02:13:17.344Z,98762.64
2018-08-22T02:15:47.886Z,98762.32
2018-08-22T02:18:18.386Z,98762.96
2018-08-22T02:20:48.900Z,98763.56
2018-08-22T02:23:19.550Z,98764.53
2018-08-22T02:25:50.072Z,98759.89
2018-08-22T02:28:21.119Z,98757.53
2018-08-22T02:30:51.436Z,98756.52
2018-08-22T02:33:21.881Z,98754.68
2018-08-22T02:35:52.302Z,98749.20
2018-08-22T02:38:25.055Z,98753.11
2018-08-22T02:40:57.713Z,98754.63
2018-08-22T02:43:28.139Z,98759.23
2018-08-22T02:45:59.009Z,98753.70
2018-08-22T02:48:29.505Z,98758.52
2018-08-22T02:51:00.073Z,98749.93
2018-08-22T02:53:30.455Z,98756.80
2018-08-22T02:56:01.612Z,98753.79
2018-08-22T02:58:32.078Z,98747.52
2018-08-22T03:01:03.145Z,98751.48
2018-08-22T03:03:33.623Z,98748.84
2018-08-22T03:06:04.517Z,98747.04
2018-08-22T03:08:35.541Z,98754.47
2018-08-22T03:11:06.297Z,98755.16
2018-08-22T03:13:36.679Z,98756.88
2018-08-22T03:16:08.541Z,98745.97
2018-08-22T03:18:38.983Z,98759.75
2018-08-22T03:21:09.367Z,98766.67
2018-08-22T03:23:39.789Z,98758.63
2018-08-22T03:26:10.372Z,98765.02
2018-08-22T03:28:40.664Z,98755.38
2018-08-22T03:31:11.231Z,98755.97
2018-08-22T03:33:41.841Z,98761.49
2018-08-22T03:36:12.580Z,98756.44
2018-08-22T03:38:43.147Z,98759.56
2018-08-22T03:41:13.451Z,98757.17
2018-08-22T03:43:43.984Z,98762.17
2018-08-22T03:46:14.363Z,98760.12
2018-08-22T03:48:45.007Z,98760.23
2018-08-22T03:51:15.516Z,98760.59
2018-08-22T03:53:46.145Z,98766.77
2018-08-22T03:56:16.573Z,98764.77
2018-08-22T03:58:46.995Z,98766.92
2018-08-22T04:01:17.424Z,98771.17
2018-08-22T04:03:48.056Z,98770.39
2018-08-22T04:06:18.316Z,98775.23
2018-08-22T04:08:48.732Z,98776.02
2018-08-22T04:11:19.286Z,98779.55
2018-08-22T04:13:49.921Z,98777.06
2018-08-22T04:16:20.235Z,98787.80
2018-08-22T04:18:50.602Z,98784.41
2018-08-22T04:21:20.953Z,98785.30
2018-08-22T04:23:51.522Z,98784.13
2018-08-22T04:26:22.101Z,98783.64
2018-08-22T04:28:52.639Z,98792.30
2018-08-22T04:31:23.079Z,98791.68
2018-08-22T04:33:53.570Z,98796.95
2018-08-22T04:36:24.024Z,98796.54
2018-08-22T04:38:54.525Z,98802.41
2018-08-22T04:41:25.085Z,98799.16
2018-08-22T04:43:56.256Z,98798.26
2018-08-22T04:46:26.870Z,98800.58
2018-08-22T04:48:57.450Z,98802.28
2018-08-22T04:51:27.906Z,98804.50
2018-08-22T04:53:58.370Z,98806.24
2018-08-22T04:56:28.897Z,98801.18
2018-08-22T04:58:59.746Z,98808.16
2018-08-22T05:01:30.292Z,98805.42
2018-08-22T05:04:01.094Z,98805.91
2018-08-22T05:06:31.617Z,98802.00
2018-08-22T05:09:02.165Z,98800.59
2018-08-22T05:11:32.616Z,98807.44
2018-08-22T05:14:03.394Z,98810.49
2018-08-22T05:16:34.206Z,98805.55
2018-08-22T05:19:04.836Z,98809.66
2018-08-22T05:21:35.162Z,98804.59
2018-08-22T05:24:05.889Z,98808.73
2018-08-22T05:26:36.367Z,98803.61
2018-08-22T05:29:06.972Z,98806.10
2018-08-22T05:31:37.424Z,98808.78
2018-08-22T05:34:08.050Z,98809.77
2018-08-22T05:36:38.277Z,98811.91
2018-08-22T05:39:12.924Z,98816.30
2018-08-22T05:41:44.004Z,98820.59
2018-08-22T05:44:16.650Z,98814.22
2018-08-22T05:46:47.593Z,98818.72
2018-08-22T05:49:19.332Z,98826.13
2018-08-22T05:51:50.205Z,98825.03
2018-08-22T05:54:21.487Z,98828.98
2018-08-22T05:56:52.412Z,98827.01
2018-08-22T05:59:23.465Z,98825.03
2018-08-22T06:01:54.061Z,98823.55
2018-08-22T06:04:24.878Z,98826.55
2018-08-22T06:06:55.523Z,98823.14
2018-08-22T06:09:26.764Z,98824.06
2018-08-22T06:11:58.306Z,98829.30
2018-08-22T06:14:29.045Z,98836.36
2018-08-22T06:17:00.195Z,98839.33
2018-08-22T06:19:31.598Z,98833.19
2018-08-22T06:22:02.401Z,98843.46
2018-08-22T06:24:32.993Z,98843.73
2018-08-22T06:27:03.655Z,98844.28
2018-08-22T06:29:34.242Z,98836.90
2018-08-22T06:32:04.977Z,98843.85
2018-08-22T06:34:35.534Z,98839.71
2018-08-22T06:37:06.304Z,98842.90
2018-08-22T06:39:36.863Z,98845.79
2018-08-22T06:42:07.399Z,98836.61
2018-08-22T06:44:37.740Z,98837.02
2018-08-22T06:47:08.086Z,98845.27
2018-08-22T06:49:38.972Z,98839.64
2018-08-22T06:52:09.325Z,98844.15
2018-08-22T06:54:39.573Z,98841.11
2018-08-22T06:57:09.967Z,98835.55
2018-08-22T06:59:40.327Z,98842.09
2018-08-22T07:02:11.065Z,98851.09
2018-08-22T07:04:41.578Z,98853.33
2018-08-22T07:07:15.097Z,98850.37
2018-08-22T07:09:46.980Z,98848.87
2018-08-22T07:12:20.420Z,98845.31
2018-08-22T07:14:50.877Z,98846.61
2018-08-22T07:17:22.083Z,98846.77
2018-08-22T07:19:52.514Z,98848.73
2018-08-22T07:22:26.122Z,98850.82
2018-08-22T07:24:56.885Z,98850.28
2018-08-22T07:27:28.652Z,98850.56
2018-08-22T07:29:59.149Z,98851.66
2018-08-22T07:32:29.767Z,98853.28
2018-08-22T07:35:00.170Z,98857.13
2018-08-22T07:37:30.685Z,98853.15
2018-08-22T07:40:01.089Z,98859.51
2018-08-22T07:42:31.530Z,98865.53
2018-08-22T07:45:02.512Z,98860.94
2018-08-22T07:47:32.879Z,98865.84
2018-08-22T07:50:03.296Z,98862.97
2018-08-22T07:52:34.389Z,98865.08
2018-08-22T07:55:06.986Z,98860.70
2018-08-22T07:57:37.677Z,98868.15
2018-08-22T08:00:08.878Z,98866.91
2018-08-22T08:02:39.391Z,98858.30
2018-08-22T08:05:09.809Z,98858.73
2018-08-22T08:07:40.476Z,98861.33
2018-08-22T08:10:17.667Z,98868.42
2018-08-22T08:12:48.858Z,98861.73
2018-08-22T08:15:19.224Z,98859.27
2018-08-22T08:17:50.054Z,98864.61
2018-08-22T08:20:20.500Z,98861.42
2018-08-22T08:22:51.000Z,98859.00
2018-08-22T08:25:21.607Z,98866.39
2018-08-22T08:27:55.559Z,98857.92
2018-08-22T08:30:26.238Z,98868.81
2018-08-22T08:32:57.165Z,98864.75
2018-08-22T08:35:27.975Z,98865.74
2018-08-22T08:38:00.227Z,98864.20
2018-08-22T08:40:31.611Z,98863.16
2018-08-22T08:43:03.212Z,98864.39
2018-08-22T08:45:33.903Z,98864.78
2018-08-22T08:48:05.450Z,98865.81
2018-08-22T08:50:36.243Z,98865.27
2018-08-22T08:53:08.076Z,98860.18
2018-08-22T08:55:39.562Z,98860.83
2018-08-22T08:58:12.567Z,98864.03
2018-08-22T09:00:43.438Z,98861.61
2018-08-22T09:03:19.065Z,98853.45
2018-08-22T09:05:50.861Z,98858.58
2018-08-22T09:08:22.822Z,98853.02
2018-08-22T09:10:56.747Z,98860.31
2018-08-22T09:13:27.671Z,98864.47
2018-08-22T09:15:58.053Z,98857.42
2018-08-22T09:18:28.369Z,98852.74
2018-08-22T09:20:59.176Z,98852.22
2018-08-22T09:23:29.436Z,98851.17
2018-08-22T09:25:59.833Z,98845.91
2018-08-22T09:28:30.207Z,98849.67
2018-08-22T09:31:01.368Z,98841.21
2018-08-22T09:33:32.068Z,98839.81
2018-08-22T09:36:02.457Z,98835.70
2018-08-22T09:38:32.823Z,98843.39
2018-08-22T09:41:03.258Z,98838.44
2018-08-22T09:43:34.219Z,98833.70
2018-08-22T09:46:04.805Z,98832.25
2018-08-22T09:48:35.515Z,98832.53
2018-08-22T09:51:06.140Z,98838.28
2018-08-22T09:53:36.551Z,98834.58
2018-08-22T09:56:07.629Z,98829.59
2018-08-22T09:58:38.134Z,98820.82
2018-08-22T10:01:13.541Z,98818.22
2018-08-22T10:03:57.731Z,98822.03
2018-08-22T10:06:42.829Z,98816.15
2018-08-22T10:09:17.626Z,98815.88
2018-08-22T10:11:48.111Z,98817.05
2018-08-22T10:14:18.832Z,98809.83
2018-08-22T10:16:49.213Z,98813.28
2018-08-22T10:19:19.732Z,98802.41
2018-08-22T10:21:50.204Z,98806.93
2018-08-22T10:24:21.436Z,98797.95
2018-08-22T10:26:51.958Z,98793.34
2018-08-22T10:29:22.392Z,98786.12
2018-08-22T10:31:52.791Z,98789.17
2018-08-22T10:34:23.272Z,98782.84
2018-08-22T10:36:54.625Z,98784.17
2018-08-22T10:39:25.198Z,98782.16
2018-08-22T10:41:55.782Z,98775.67
2018-08-22T10:44:26.347Z,98775.09
2018-08-22T10:46:57.339Z,98769.88
2018-08-22T10:49:28.053Z,98772.83
2018-08-22T10:51:58.495Z,98764.20
2018-08-22T10:54:29.011Z,98760.39
2018-08-22T10:56:59.508Z,98753.75
2018-08-22T10:59:29.934Z,98762.95
2018-08-22T11:02:01.062Z,98754.53
2018-08-22T11:04:31.601Z,98754.86
2018-08-22T11:07:03.383Z,98755.28
2018-08-22T11:09:33.820Z,98748.80
2018-08-22T11:12:04.292Z,98739.73
2018-08-22T11:14:35.023Z,98741.70
2018-08-22T11:17:05.773Z,98734.90
2018-08-22T11:19:38.348Z,98737.35
2018-08-22T11:22:25.114Z,98728.64
2018-08-22T11:25:12.233Z,98725.31
2018-08-22T11:27:59.210Z,98728.65
2018-08-22T11:30:46.139Z,98727.83
2018-08-22T11:33:32.981Z,98731.31
2018-08-22T11:36:01.150Z,98724.32
2018-08-22T11:38:31.948Z,98720.02
2018-08-22T11:41:02.637Z,98716.38
2018-08-22T11:43:33.060Z,98711.64
2018-08-22T11:46:03.596Z,98714.90
2018-08-22T11:48:34.083Z,98696.80
2018-08-22T11:51:04.571Z,98698.77
2018-08-22T11:53:35.145Z,98691.83
2018-08-22T11:56:05.806Z,98692.20
2018-08-22T11:58:36.439Z,98697.30
2018-08-22T12:01:07.155Z,98696.34
2018-08-22T12:03:37.692Z,98692.22
2018-08-22T12:06:08.327Z,98698.98
2018-08-22T12:08:38.687Z,98695.84
2018-08-22T12:11:09.277Z,98700.36
2018-08-22T12:13:39.885Z,98703.06
2018-08-22T12:16:11.051Z,98688.47
2018-08-22T12:18:44.587Z,98695.17
2018-08-22T12:21:15.405Z,98691.56
2018-08-22T12:23:46.036Z,98702.25
2018-08-22T12:26:16.618Z,98702.90
2018-08-22T12:28:49.034Z,98702.64
2018-08-22T12:31:19.453Z,98700.45
2018-08-22T12:33:50.888Z,98704.38
2018-08-22T12:36:22.754Z,98700.16
2018-08-22T12:38:54.217Z,98691.47
2018-08-22T12:41:25.569Z,98688.04
2018-08-22T12:43:57.750Z,98685.25
2018-08-22T12:46:28.679Z,98686.52
2018-08-22T12:49:00.018Z,98684.47
2018-08-22T12:51:31.516Z,98671.41
2018-08-22T12:54:02.413Z,98674.97
2018-08-22T12:56:33.099Z,98673.64
2018-08-22T12:59:03.671Z,98671.79
2018-08-22T13:01:34.431Z,98661.55
2018-08-22T13:04:05.630Z,98664.80
2018-08-22T13:06:36.206Z,98669.30
2018-08-22T13:09:10.831Z,98662.77
2018-08-22T13:11:42.234Z,98659.01
2018-08-22T13:14:13.025Z,98655.03
2018-08-22T13:16:44.532Z,98651.03
2018-08-22T13:19:15.057Z,98650.45
2018-08-22T13:21:45.562Z,98642.13
2018-08-22T13:24:17.013Z,98644.16
2018-08-22T13:26:49.970Z,98639.16
2018-08-22T13:29:21.070Z,98635.91
2018-08-22T13:31:51.675Z,98637.06
2018-08-22T13:34:22.078Z,98637.41
2018-08-22T13:36:53.426Z,98640.36
2018-08-22T13:39:24.278Z,98632.14
2018-08-22T13:41:54.768Z,98630.01
2018-08-22T13:44:25.319Z,98624.08
2018-08-22T13:46:55.710Z,98620.50
2018-08-22T13:49:26.404Z,98632.62
2018-08-22T13:51:56.781Z,98631.66
2018-08-22T13:54:27.142Z,98632.48
2018-08-22T13:56:57.535Z,98636.17
2018-08-22T13:59:27.997Z,98645.47
2018-08-22T14:01:58.608Z,98650.86
2018-08-22T14:04:30.181Z,98670.34
2018-08-22T14:07:01.355Z,98672.04
2018-08-22T14:09:33.300Z,98685.30
2018-08-22T14:12:03.896Z,98703.96
2018-08-22T14:14:34.372Z,98708.88
2018-08-22T14:17:08.837Z,98708.19
2018-08-22T14:19:40.351Z,98706.25
2018-08-22T14:22:15.562Z,98720.81
2018-08-22T14:24:47.324Z,98711.31
2018-08-22T14:27:18.665Z,98708.64
2018-08-22T14:29:50.546Z,98691.80
2018-08-22T14:32:23.049Z,98695.33
2018-08-22T14:35:01.683Z,98701.09
2018-08-22T14:37:34.633Z,98711.79
2018-08-22T15:07:05.776Z,98745.75
2018-08-22T15:09:36.517Z,98750.36
2018-08-22T15:12:07.012Z,98745.39
2018-08-22T15:14:37.671Z,98746.09
2018-08-22T15:17:08.073Z,98734.59
2018-08-22T15:19:38.818Z,98744.86
2018-08-22T15:22:09.248Z,98737.91
2018-08-22T15:24:39.661Z,98735.39
2018-08-22T15:27:10.091Z,98729.66
2018-08-22T15:29:41.750Z,98726.17
2018-08-22T15:32:13.445Z,98731.69
2018-08-22T15:34:52.540Z,98731.88
2018-08-22T15:37:23.503Z,98736.18
2018-08-22T15:39:54.048Z,98756.11
2018-08-22T15:42:24.992Z,98767.06
2018-08-22T15:44:56.658Z,98775.16
2018-08-22T15:47:27.537Z,98779.14
2018-08-22T15:49:57.940Z,98776.91
2018-08-22T15:52:28.662Z,98777.93
2018-08-22T15:55:19.475Z,98783.03
2018-08-22T15:58:02.439Z,98773.36
2018-08-22T16:00:36.895Z,98770.34
2018-08-22T16:03:08.727Z,98768.64
2018-08-22T16:05:40.583Z,98775.80
2018-08-22T16:08:14.355Z,98781.85
2018-08-22T16:10:45.213Z,98790.87
2018-08-22T16:29:15.389Z,98759.75
2018-08-22T19:16:45.651Z,98813.44
2018-08-22T19:19:19.515Z,98822.13
2018-08-22T19:21:55.622Z,98827.11
2018-08-22T19:24:28.148Z,98826.47
2018-08-22T19:27:00.344Z,98825.62
2018-08-22T19:29:33.063Z,98830.11
2018-08-22T19:32:04.797Z,98833.75
2018-08-22T19:34:37.229Z,98828.42
2018-08-22T19:37:08.777Z,98822.61
2018-08-22T19:39:49.991Z,98832.58
2018-08-22T19:42:21.397Z,98831.93
2018-08-22T19:44:52.879Z,98839.72
2018-08-22T19:47:24.429Z,98851.16
2018-08-22T19:49:55.832Z,98846.30
2018-08-22T19:52:27.576Z,98851.31
2018-08-22T19:55:00.653Z,98846.05
2018-08-22T19:57:35.491Z,98848.55
2018-08-22T20:00:10.102Z,98859.35
2018-08-22T20:02:42.121Z,98857.36
2018-08-22T20:05:15.580Z,98854.57
2018-08-22T20:07:47.188Z,98861.69
2018-08-22T20:10:25.462Z,98849.91
2018-08-22T20:12:57.934Z,98847.39
2018-08-22T20:15:31.672Z,98845.09
2018-08-22T20:18:04.127Z,98851.89
2018-08-22T20:20:37.448Z,98844.09
2018-08-22T20:23:10.886Z,98849.42
2018-08-22T20:25:43.536Z,98849.26
2018-08-22T20:28:16.395Z,98850.41
2018-08-22T20:30:51.277Z,98857.41
2018-08-22T20:33:24.161Z,98855.42
2018-08-22T20:35:57.108Z,98859.40
2018-08-22T20:38:29.523Z,98866.34
2018-08-22T20:41:09.906Z,98870.03
2018-08-22T20:43:43.065Z,98865.70
2018-08-22T20:46:17.560Z,98866.37
2018-08-22T20:48:52.257Z,98874.33
2018-08-22T20:51:23.858Z,98874.47
2018-08-22T20:54:01.106Z,98881.75
2018-08-22T20:56:33.744Z,98881.72
2018-08-22T20:59:04.602Z,98883.08
2018-08-22T21:01:36.375Z,98876.62
2018-08-22T21:04:07.868Z,98877.28
2018-08-22T21:06:39.546Z,98876.13
2018-08-22T21:09:10.390Z,98885.03
2018-08-22T21:11:42.799Z,98878.39
2018-08-22T21:14:13.681Z,98875.56
2018-08-22T21:16:44.133Z,98876.88
2018-08-22T21:19:16.425Z,98883.18
2018-08-22T21:21:48.730Z,98878.01
2018-08-22T21:24:21.520Z,98880.81
2018-08-22T21:26:52.371Z,98882.16
2018-08-22T21:29:22.737Z,98878.84
2018-08-22T21:31:53.372Z,98881.00
2018-08-22T21:34:24.650Z,98879.81
2018-08-22T21:36:55.059Z,98867.58
2018-08-22T21:39:27.162Z,98879.50
2018-08-22T21:41:57.666Z,98882.81
2018-08-22T21:44:28.178Z,98882.45
2018-08-22T21:47:04.322Z,98876.49
2018-08-22T21:49:34.790Z,98870.22
2018-08-22T21:52:05.587Z,98877.16
2018-08-22T21:54:36.059Z,98875.66
2018-08-22T21:57:06.550Z,98877.81
2018-08-22T21:59:37.727Z,98868.20
2018-08-22T22:02:09.492Z,98862.41
2018-08-22T22:04:41.166Z,98860.89
2018-08-22T22:07:12.644Z,98867.80
2018-08-22T22:09:43.023Z,98870.44
2018-08-22T22:12:19.265Z,98864.13
2018-08-22T22:14:49.563Z,98862.78
2018-08-22T22:17:19.905Z,98856.83
2018-08-22T22:19:50.188Z,98856.15
2018-08-22T22:22:20.647Z,98848.52
2018-08-22T22:24:55.979Z,98854.95
2018-08-22T22:27:26.849Z,98854.07
2018-08-22T22:30:05.378Z,98858.70
2018-08-22T22:32:35.859Z,98850.58
2018-08-22T22:35:06.336Z,98842.48
2018-08-22T22:37:36.768Z,98850.73
2018-08-22T22:40:07.742Z,98847.73
2018-08-22T22:42:39.752Z,98851.89
2018-08-22T22:45:10.055Z,98842.30
2018-08-22T22:47:40.445Z,98847.85
2018-08-22T22:50:10.793Z,98849.13
2018-08-22T22:52:46.110Z,98843.31
2018-08-22T22:55:16.525Z,98842.79
2018-08-22T22:57:46.983Z,98842.42
2018-08-22T23:00:19.487Z,98843.05
2018-08-22T23:02:55.106Z,98834.75
2018-08-22T23:05:29.593Z,98832.89
2018-08-22T23:08:02.482Z,98826.92
2018-08-22T23:10:33.786Z,98821.63
2018-08-22T23:13:04.219Z,98829.46
2018-08-22T23:15:35.873Z,98829.78
2018-08-22T23:18:06.151Z,98830.11
2018-08-22T23:20:41.597Z,98830.41
2018-08-22T23:23:29.715Z,98826.75
2018-08-22T23:26:24.563Z,98827.32
2018-08-22T23:28:55.037Z,98827.95
2018-08-22T23:31:25.399Z,98815.05
2018-08-22T23:33:55.671Z,98821.31
2018-08-22T23:36:26.101Z,98823.25
2018-08-22T23:38:56.360Z,98822.09
2018-08-22T23:41:27.253Z,98815.59
2018-08-22T23:43:57.553Z,98807.98
2018-08-22T23:46:27.970Z,98816.42
2018-08-22T23:48:59.568Z,98815.94
2018-08-22T23:51:30.105Z,98809.63
2018-08-22T23:54:01.714Z,98813.73
2018-08-22T23:56:33.262Z,98805.73
2018-08-22T23:59:03.600Z,98802.84
